Latest Weather Observations for Leonora Airport

IDW60801

Issued at 8:05 pm WST Wednesday 1 October 2014 (issued every 30 minutes, with the page automatically refreshed every 10 minutes)

About weather observations | Map of weather stations | Latest weather observations for WA | Other Formats
Station Details ID: 012241 Name: LEONORA AERO Lat: -28.88 Lon: 121.32 Height: 370.0 m
Data from the previous 72 hours. | See also: Recent months for locations in Western Australia
Date/Time
WST
Temp
°C
App
Temp
°C
Dew
Point
Rel
Hum
%
Delta-T
°C
Wind Press
QNH
hPa
Press
MSL
hPa
Rain
since 9 am
mm
Dir
 
Spd
km/h
Gust
km/h
Spd
kts
Gust
kts
01/08:00pm 25.9 20.6 1.9 21 11.7 ESE 19 28 10 15 1018.8 1017.3 0.0
01/07:30pm 26.9 22.4 2.1 20 12.2 SE 15 20 8 11 1018.9 1017.4 0.0
01/07:00pm 27.3 22.5 2.4 20 12.4 ESE 17 22 9 12 1018.5 1017.0 0.0
01/06:30pm 27.8 22.5 2.1 19 12.8 ESE 19 26 10 14 1017.8 1016.4 0.0
01/06:00pm 28.6 23.7 2.0 18 13.2 ESE 17 22 9 12 1017.7 1016.3 0.0
01/05:30pm 29.5 23.7 0.2 15 14.2 E 20 28 11 15 1017.5 1016.1 0.0
01/05:00pm 30.4 23.8 -0.1 14 14.8 E 24 35 13 19 1017.1 1015.6 0.0
01/04:30pm 30.9 24.4 0.3 14 15.0 E 24 33 13 18 1017.0 1015.5 0.0
01/04:00pm 31.1 24.6 0.5 14 15.1 E 24 35 13 19 1017.0 1015.5 0.0
01/03:30pm 31.1 25.4 0.5 14 15.1 E 20 33 11 18 1017.1 1015.6 0.0
01/03:00pm 30.7 23.9 1.1 15 14.7 E 26 39 14 21 1017.4 1016.0 0.0
01/02:30pm 30.6 24.0 1.9 16 14.5 ENE 26 39 14 21 1017.6 1016.2 0.0
01/02:00pm 30.4 23.9 2.6 17 14.1 E 26 37 14 20 1018.0 1016.6 0.0
01/01:30pm 29.7 24.7 3.6 19 13.5 E 19 26 10 14 1018.4 1016.9 0.0
01/01:00pm 28.7 23.6 4.2 21 12.7 ENE 20 28 11 15 1019.0 1017.5 0.0
01/12:30pm 28.5 23.7 4.7 22 12.4 ENE 19 24 10 13 1019.5 1018.0 0.0
01/12:00pm 27.0 21.3 4.7 24 11.5 E 24 30 13 16 1020.1 1018.7 0.0
01/11:30am 27.0 21.8 5.3 25 11.3 E 22 28 12 15 1020.5 1019.1 0.0
01/11:00am 26.5 21.2 4.9 25 11.1 ENE 22 30 12 16 1021.0 1019.6 0.0
01/10:30am 26.8 22.0 5.7 26 11.1 E 20 35 11 19 1021.4 1019.9 0.0
01/10:00am 25.5 20.0 5.7 28 10.3 ENE 24 35 13 19 1021.7 1020.2 0.0
01/09:30am 24.3 17.6 5.6 30 9.7 E 30 39 16 21 1021.8 1020.3 0.0
01/09:00am 23.0 16.7 5.9 33 8.8 ENE 28 39 15 21 1022.2 1020.8 0.0
01/08:30am 22.4 15.8 6.2 35 8.4 E 30 41 16 22 1022.3 1020.9 0.0
01/08:00am 20.9 13.7 6.1 38 7.5 ENE 33 43 18 23 1022.4 1021.0 0.0
01/07:30am 20.4 14.6 6.4 40 7.2 E 26 33 14 18 1022.3 1021.5 0.0
01/07:00am 19.0 14.2 5.8 42 6.6 E 20 30 11 16 1022.0 1021.2 0.0
01/06:30am 18.1 14.0 6.0 45 6.1 ESE 17 24 9 13 1021.7 1020.8 0.0
01/06:00am 17.3 13.5 5.9 47 5.6 ESE 15 20 8 11 1021.4 1020.5 0.0
01/05:30am 17.1 13.7 5.7 47 5.6 E 13 19 7 10 1021.2 1020.3 0.0
01/05:00am 17.5 13.7 5.8 46 5.8 E 15 20 8 11 1020.9 1020.1 0.0
01/04:30am 17.8 13.5 5.4 44 6.1 E 17 22 9 12 1020.6 1019.8 0.0
01/04:00am 18.2 13.9 5.4 43 6.3 E 17 24 9 13 1020.4 1019.6 0.0
01/03:30am 18.5 13.9 5.4 42 6.5 E 19 28 10 15 1020.2 1019.4 0.0
01/03:00am 18.9 13.7 5.4 41 6.7 E 22 33 12 18 1019.7 1018.9 0.0
01/02:30am 19.2 13.6 5.3 40 6.9 E 24 32 13 17 1019.8 1019.0 0.0
01/02:00am 19.4 13.8 5.5 40 6.9 E 24 33 13 18 1019.9 1019.1 0.0
01/01:30am 19.6 14.0 5.3 39 7.1 ESE 24 32 13 17 1019.8 1019.0 0.0
01/01:00am 20.0 14.3 4.9 37 7.5 ESE 24 35 13 19 1020.2 1019.4 0.0
01/12:30am 20.3 15.0 4.8 36 7.7 ESE 22 30 12 16 1020.7 1019.9 0.0
01/12:00am 19.6 15.1 4.1 36 7.5 ESE 17 24 9 13 1021.4 1020.5 0.0
 
Date/Time
WST
Temp
°C
App
Temp
°C
Dew
Point
Rel
Hum
%
Delta-T
°C
Wind Press
QNH
hPa
Press
MSL
hPa
Rain
since 9 am
mm
Dir
 
Spd
km/h
Gust
km/h
Spd
kts
Gust
kts
30/11:30pm 19.6 14.5 3.3 34 7.8 ESE 19 24 10 13 1021.4 1020.5 0.0
30/11:00pm 20.0 15.2 2.8 32 8.2 ESE 17 22 9 12 1021.6 1020.7 0.0
30/10:30pm 20.7 16.0 3.0 31 8.5 ESE 17 20 9 11 1021.7 1020.8 0.0
30/10:00pm 21.4 16.7 3.1 30 8.8 ESE 17 19 9 10 1021.7 1020.8 0.0
30/09:30pm 22.1 17.5 3.7 30 9.1 ESE 17 20 9 11 1021.6 1020.7 0.0
30/09:00pm 22.6 18.9 4.2 30 9.1 SE 13 17 7 9 1021.6 1020.7 0.0
30/08:30pm 22.5 18.9 3.1 28 9.5 SE 11 15 6 8 1021.3 1020.4 0.0
30/08:00pm 23.6 19.5 2.4 25 10.3 SE 13 15 7 8 1021.0 1020.2 0.0
30/07:30pm 24.6 19.7 2.1 23 10.9 SE 17 22 9 12 1020.6 1019.8 0.0
30/07:00pm 25.3 21.3 2.7 23 11.1 SE 13 20 7 11 1020.2 1019.4 0.0
30/06:30pm 25.9 21.1 2.6 22 11.5 SE 17 24 9 13 1019.6 1018.8 0.0
30/06:00pm 26.6 22.0 1.8 20 12.1 SE 15 22 8 12 1019.3 1018.4 0.0
30/05:30pm 27.6 22.9 1.2 18 12.9 SE 15 28 8 15 1019.0 1018.1 0.0
30/05:00pm 28.3 23.2 0.9 17 13.3 SE 17 24 9 13 1018.8 1017.9 0.0
30/04:30pm 28.8 23.7 0.5 16 13.8 ESE 17 22 9 12 1018.7 1017.8 0.0
30/04:00pm 28.7 23.9 0.4 16 13.7 SSE 15 26 8 14 1018.6 1017.7 0.0
30/03:30pm 29.0 24.7 0.7 16 13.8 ESE 13 20 7 11 1018.6 1017.7 0.0
30/03:00pm 28.8 24.7 -0.4 15 13.9 ENE 11 32 6 17 1018.5 1017.6 0.0
30/02:30pm 28.1 23.8 0.8 17 13.3 SE 13 20 7 11 1018.7 1017.8 0.0
30/02:00pm 28.4 24.2 1.8 18 13.2 SE 13 20 7 11 1018.9 1018.0 0.0
30/01:30pm 27.5 23.3 1.8 19 12.7 SSE 13 24 7 13 1019.0 1018.1 0.0
30/01:00pm 28.0 23.3 3.0 20 12.6 SE 17 32 9 17 1019.4 1018.5 0.0
30/12:30pm 26.7 21.5 2.6 21 12.0 ESE 19 32 10 17 1019.8 1019.0 0.0
30/12:00pm 26.2 21.9 3.4 23 11.4 ESE 15 24 8 13 1020.3 1019.5 0.0
30/11:30am 25.0 21.4 3.0 24 10.9 E 11 22 6 12 1020.8 1020.0 0.0
30/11:00am 25.4 21.7 4.5 26 10.6 ESE 13 24 7 13 1021.2 1020.3 0.0
30/10:30am 24.8 20.7 4.5 27 10.3 ESE 15 26 8 14 1021.4 1020.5 0.0
30/10:00am 24.1 19.7 5.0 29 9.7 ESE 17 26 9 14 1021.8 1020.9 0.0
30/09:30am 22.5 17.7 4.5 31 9.0 ESE 19 28 10 15 1021.9 1021.0 0.0
30/09:00am 22.2 17.3 5.2 33 8.6 SE 20 32 11 17 1021.9 1021.0 0.0
30/08:30am 20.2 15.2 4.7 36 7.7 SE 20 28 11 15 1021.8 1020.9 0.0
30/08:00am 19.7 15.4 5.4 39 7.1 SE 17 26 9 14 1021.7 1020.8 0.0
30/07:30am 18.4 14.9 5.3 42 6.5 SE 13 17 7 9 1021.5 1020.6 0.0
30/07:00am 16.5 13.9 4.2 44 5.8 ESE 7 13 4 7 1021.3 1020.4 0.0
30/06:30am 14.9 12.4 4.0 48 5.1 E 6 9 3 5 1020.7 1019.9 0.0
30/06:00am 13.7 11.1 4.0 52 4.5 ESE 7 9 4 5 1020.4 1019.6 0.0
30/05:30am 12.8 9.7 3.7 54 4.2 ESE 9 11 5 6 1020.2 1019.4 0.0
30/05:00am 14.1 10.7 4.1 51 4.7 ESE 11 13 6 7 1019.8 1019.0 0.0
30/04:30am 14.6 11.3 4.6 51 4.7 SE 11 15 6 8 1019.5 1018.6 0.0
30/04:00am 13.6 10.8 3.4 50 4.7 SE 7 9 4 5 1019.4 1018.5 0.0
30/03:30am 14.4 11.2 3.2 47 5.1 ESE 9 11 5 6 1019.1 1018.2 0.0
30/03:00am 15.9 12.6 4.6 47 5.4 SE 11 17 6 9 1019.0 1018.1 0.0
30/02:30am 14.2 11.4 3.1 47 5.1 SE 7 9 4 5 1018.9 1018.0 0.0
30/02:00am 14.7 12.0 2.9 45 5.4 SSE 6 7 3 4 1018.7 1017.8 0.0
30/01:30am 16.1 13.0 3.5 43 5.9 S 9 11 5 6 1018.7 1017.8 0.0
30/01:00am 16.5 13.7 3.2 41 6.2 S 7 11 4 6 1018.7 1017.8 0.0
30/12:30am 17.1 13.8 2.7 38 6.7 S 9 13 5 7 1018.6 1017.7 0.0
30/12:00am 17.9 13.8 2.2 35 7.3 S 13 19 7 10 1018.6 1017.7 0.0
 
Date/Time
WST
Temp
°C
App
Temp
°C
Dew
Point
Rel
Hum
%
Delta-T
°C
Wind Press
QNH
hPa
Press
MSL
hPa
Rain
since 9 am
mm
Dir
 
Spd
km/h
Gust
km/h
Spd
kts
Gust
kts
29/11:30pm 17.6 13.8 1.6 34 7.3 S 11 17 6 9 1018.5 1017.6 0.0
29/11:00pm 17.6 13.2 0.3 31 7.7 SSW 13 17 7 9 1018.5 1017.6 0.0
29/10:30pm 18.2 14.1 -0.1 29 8.1 SSW 11 17 6 9 1018.3 1017.4 0.0
29/10:00pm 19.2 14.6 -0.7 26 8.8 SSW 13 19 7 10 1018.1 1017.3 0.0
29/09:30pm 18.7 14.8 -1.2 26 8.7 SW 9 11 5 6 1018.1 1017.3 0.0
29/09:00pm 19.6 15.7 -1.5 24 9.2 SW 9 13 5 7 1017.9 1017.1 0.0
29/08:30pm 20.9 17.0 -1.6 22 9.9 WSW 9 13 5 7 1017.8 1017.0 0.0
29/08:00pm 21.3 17.3 -1.9 21 10.2 SW 9 13 5 7 1017.6 1016.8 0.0
29/07:30pm 21.2 17.2 -2.6 20 10.3 SW 9 11 5 6 1017.2 1016.4 0.0
29/07:00pm 23.4 19.2 -3.8 16 11.7 W 9 13 5 7 1016.9 1016.0 0.0
29/06:30pm 24.6 19.7 -3.7 15 12.3 W 13 19 7 10 1016.4 1015.5 0.0
29/06:00pm 25.6 19.9 -3.8 14 12.9 W 17 20 9 11 1015.8 1014.9 0.0
29/05:30pm 26.6 21.0 -3.1 14 13.3 W 17 22 9 12 1015.3 1014.5 0.0
29/05:00pm 27.2 20.2 -7.0 10 14.4 WNW 22 32 12 17 1015.1 1014.3 0.0
29/04:30pm 27.6 20.4 -5.5 11 14.3 W 24 30 13 16 1014.8 1013.9 0.0
29/04:00pm 28.0 21.8 -3.0 13 14.1 W 20 28 11 15 1014.7 1013.8 0.0
29/03:30pm 27.2 23.3 -1.7 15 13.4 NE 9 11 5 6 1014.5 1013.6 0.0
29/03:00pm 27.7 20.9 -2.2 14 13.7 WNW 24 32 13 17 1014.5 1013.6 0.0
29/02:30pm 26.6 19.6 -0.4 17 12.7 NW 26 37 14 20 1014.6 1013.7 0.0
29/02:00pm 27.5 20.9 -0.5 16 13.2 WNW 24 39 13 21 1014.8 1013.9 0.0
29/01:30pm 26.3 20.0 -0.7 17 12.6 W 22 33 12 18 1015.2 1014.4 0.0
29/01:00pm 26.3 20.7 0.1 18 12.4 W 19 39 10 21 1015.7 1014.8 0.0
29/12:30pm 25.7 19.5 -2.8 15 12.8 W 20 35 11 19 1016.0 1015.1 0.0
29/12:00pm 25.5 19.6 -0.5 18 12.1 W 20 32 11 17 1016.3 1015.4 0.0
29/11:30am 25.2 19.7 0.7 20 11.7 WNW 19 30 10 16 1016.8 1015.9 0.0
29/11:00am 25.2 19.7 0.7 20 11.6 W 19 24 10 13 1016.9 1016.0 0.0
29/10:30am 22.9 19.2 2.4 26 9.9 N 11 17 6 9 1017.2 1016.4 0.0
29/10:00am 22.2 19.8 2.3 27 9.5 NNW 4 9 2 5 1017.5 1016.7 0.0
29/09:30am 21.0 18.5 3.7 32 8.4 E 6 11 3 6 1017.7 1016.9 0.0
29/09:00am 20.3 17.3 3.9 34 8.0 SSE 9 15 5 8 1018.0 1017.2 0.0
29/08:30am 18.6 15.1 3.6 37 7.2 S 11 17 6 9 1018.1 1017.3 0.0
29/08:00am 17.5 13.7 3.8 40 6.5 S 13 19 7 10 1017.9 1017.1 0.0
29/07:30am 16.5 13.5 3.9 43 6.0 SSE 9 13 5 7 1017.7 1016.9 0.0
29/07:00am 14.8 12.2 3.0 45 5.4 SSE 6 9 3 5 1017.6 1016.8 0.0
29/06:30am 13.2 10.5 2.4 48 4.8 S 6 11 3 6 1017.3 1016.5 0.0
29/06:00am 11.2 8.3 1.2 50 4.3 S 6 7 3 4 1016.9 1016.0 0.0
29/05:30am 11.4 8.4 1.1 49 4.4 SSE 6 7 3 4 1016.5 1015.6 0.0
29/05:00am 12.6 9.2 1.6 47 4.8 S 9 11 5 6 1016.1 1015.2 0.0
29/04:30am 12.5 8.2 0.9 45 5.0 S 13 17 7 9 1015.9 1015.0 0.0
29/04:00am 12.1 8.4 0.2 44 5.0 S 9 13 5 7 1015.8 1014.9 0.0
29/03:30am 11.8 7.6 -0.7 42 5.1 SSW 11 13 6 7 1015.7 1014.8 0.0
29/03:00am 10.7 6.9 -4.1 35 5.6 SW 7 9 4 5 1015.7 1014.8 0.0
29/02:30am 10.5 8.0 -4.3 35 5.5 CALM 0 0 0 0 1015.9 1015.0 0.0
29/02:00am 11.0 7.3 -4.2 34 5.7 ESE 6 6 3 3 1015.9 1015.0 0.0
29/01:30am 12.3 8.5 -3.5 33 6.1 W 7 20 4 11 1016.1 1015.2 0.0
29/01:00am 11.6 9.0 -4.5 32 6.1 CALM 0 0 0 0 1016.1 1015.2 0.0
29/12:30am 12.2 8.6 -4.0 32 6.2 NW 6 7 3 4 1016.3 1015.4 0.0
29/12:00am 12.9 10.4 -4.2 30 6.6 CALM 0 0 0 0 1016.4 1015.5 0.0
 
Date/Time
WST
Temp
°C
App
Temp
°C
Dew
Point
Rel
Hum
%
Delta-T
°C
Wind Press
QNH
hPa
Press
MSL
hPa
Rain
since 9 am
mm
Dir
 
Spd
km/h
Gust
km/h
Spd
kts
Gust
kts
28/11:30pm 13.6 11.1 -4.1 29 6.9 CALM 0 0 0 0 1016.6 1015.7 0.0
28/11:00pm 14.7 12.1 -4.6 26 7.5 CALM 0 0 0 0 1016.7 1015.8 0.0
28/10:30pm 14.9 11.1 -6.0 23 7.9 NW 6 7 3 4 1016.9 1016.0 0.0
28/10:00pm 15.9 11.9 -5.8 22 8.3 WNW 7 9 4 5 1017.1 1016.2 0.0
28/09:30pm 16.1 12.3 -5.6 22 8.4 NW 6 11 3 6 1017.3 1016.5 0.0
28/09:00pm 16.2 12.8 -5.5 22 8.4 S 4 6 2 3 1017.4 1016.6 0.0
28/08:30pm 17.9 13.6 -4.7 21 9.1 SSW 9 19 5 10 1017.3 1016.5 0.0

Other Formats:

Comma delimited format used in spreadsheet applications
http://www.bom.gov.au/fwo/IDW60801/IDW60801.94450.axf

JavaScript Object Notation format (JSON) in row-major order
http://www.bom.gov.au/fwo/IDW60801/IDW60801.94450.json